Terminal Aerodrome Forecast
Issued by NWS

Home | Current Version | Previous Version | Text Only | Print | Product List | Glossary On
Versions: 1 2 3 4 5 6 7 8 9 10 11 12 13 14 15 16 17 18 19 20 21 22 23 24 25 26 27 28
000
FTUS44 KEWX 161720
TAFSSF
TAF
KSSF 161720Z 1618/1718 19011KT P6SM SCT025 BKN045
     FM170400 15008KT P6SM VCTS SCT025CB
      TEMPO 1706/1710 VRB20G30KT 3SM TSRA OVC015CB
     FM171100 VRB06KT P6SM OVC025
     FM171600 15007KT P6SM BKN035=

USA.gov is the U.S. government's official web portal to all federal, state and local government web resources and services.